sensor_id;sensor_type;location;lat;lon;timestamp;P1;durP1;ratioP1;P2;durP2;ratioP2
4873;SDS011;2451;49.970;9.068;2023-08-06T19:35:27;1.63;;;0.70;;
4873;SDS011;2451;49.970;9.068;2023-08-06T19:37:53;3.70;;;0.75;;
4873;SDS011;2451;49.970;9.068;2023-08-06T19:40:18;0.88;;;0.70;;
4873;SDS011;2451;49.970;9.068;2023-08-06T19:42:43;1.58;;;0.70;;
4873;SDS011;2451;49.970;9.068;2023-08-06T19:45:09;0.90;;;0.60;;
4873;SDS011;2451;49.970;9.068;2023-08-06T19:47:36;2.05;;;0.73;;
4873;SDS011;2451;49.970;9.068;2023-08-06T19:50:01;0.80;;;0.70;;
4873;SDS011;2451;49.970;9.068;2023-08-06T19:52:27;0.93;;;0.50;;
4873;SDS011;2451;49.970;9.068;2023-08-06T19:54:53;1.85;;;0.85;;
4873;SDS011;2451;49.970;9.068;2023-08-06T19:57:18;2.85;;;0.90;;
4873;SDS011;2451;49.970;9.068;2023-08-06T19:59:45;0.88;;;0.60;;
4873;SDS011;2451;49.970;9.068;2023-08-06T20:02:10;2.65;;;0.70;;
4873;SDS011;2451;49.970;9.068;2023-08-06T20:04:36;1.67;;;0.80;;
4873;SDS011;2451;49.970;9.068;2023-08-06T20:07:01;1.58;;;0.63;;
4873;SDS011;2451;49.970;9.068;2023-08-06T20:09:27;1.35;;;0.50;;
4873;SDS011;2451;49.970;9.068;2023-08-06T20:11:53;1.33;;;0.50;;
4873;SDS011;2451;49.970;9.068;2023-08-06T20:14:18;0.80;;;0.60;;
4873;SDS011;2451;49.970;9.068;2023-08-06T20:16:44;1.10;;;0.88;;
4873;SDS011;2451;49.970;9.068;2023-08-06T20:19:09;0.80;;;0.55;;
4873;SDS011;2451;49.970;9.068;2023-08-06T20:21:35;2.38;;;0.68;;
4873;SDS011;2451;49.970;9.068;2023-08-06T20:24:00;2.28;;;0.63;;
4873;SDS011;2451;49.970;9.068;2023-08-06T20:26:26;0.85;;;0.60;;
4873;SDS011;2451;49.970;9.068;2023-08-06T20:28:51;1.13;;;0.50;;
4873;SDS011;2451;49.970;9.068;2023-08-06T20:31:17;1.13;;;0.52;;
4873;SDS011;2451;49.970;9.068;2023-08-06T20:33:42;0.98;;;0.80;;
4873;SDS011;2451;49.970;9.068;2023-08-06T20:36:08;2.05;;;0.60;;
4873;SDS011;2451;49.970;9.068;2023-08-06T20:38:33;0.57;;;0.50;;
4873;SDS011;2451;49.970;9.068;2023-08-06T20:40:59;1.27;;;0.60;;
4873;SDS011;2451;49.970;9.068;2023-08-06T20:43:24;2.00;;;0.60;;
4873;SDS011;2451;49.970;9.068;2023-08-06T20:45:54;1.67;;;0.60;;
4873;SDS011;2451;49.970;9.068;2023-08-06T20:48:21;2.38;;;0.60;;
4873;SDS011;2451;49.970;9.068;2023-08-06T20:50:47;0.80;;;0.60;;
4873;SDS011;2451;49.970;9.068;2023-08-06T20:53:12;0.57;;;0.52;;
4873;SDS011;2451;49.970;9.068;2023-08-06T20:55:38;2.65;;;0.70;;
4873;SDS011;2451;49.970;9.068;2023-08-06T20:58:03;3.08;;;0.88;;
4873;SDS011;2451;49.970;9.068;2023-08-06T21:00:30;2.45;;;0.80;;
4873;SDS011;2451;49.970;9.068;2023-08-06T21:02:56;2.63;;;0.70;;
4873;SDS011;2451;49.970;9.068;2023-08-06T21:05:22;1.85;;;0.75;;
4873;SDS011;2451;49.970;9.068;2023-08-06T21:07:49;1.60;;;0.60;;
4873;SDS011;2451;49.970;9.068;2023-08-06T21:10:15;1.02;;;0.73;;
4873;SDS011;2451;49.970;9.068;2023-08-06T21:12:41;1.58;;;1.00;;
4873;SDS011;2451;49.970;9.068;2023-08-06T21:15:07;1.70;;;0.88;;
4873;SDS011;2451;49.970;9.068;2023-08-06T21:17:33;1.67;;;0.70;;
4873;SDS011;2451;49.970;9.068;2023-08-06T21:19:58;0.75;;;0.47;;
4873;SDS011;2451;49.970;9.068;2023-08-06T21:22:24;2.63;;;0.80;;
4873;SDS011;2451;49.970;9.068;2023-08-06T21:24:49;1.90;;;0.82;;
4873;SDS011;2451;49.970;9.068;2023-08-06T21:27:15;1.70;;;0.60;;
4873;SDS011;2451;49.970;9.068;2023-08-06T21:29:40;3.13;;;1.00;;
4873;SDS011;2451;49.970;9.068;2023-08-06T21:32:08;1.85;;;0.60;;
4873;SDS011;2451;49.970;9.068;2023-08-06T21:34:34;2.30;;;0.50;;
4873;SDS011;2451;49.970;9.068;2023-08-06T21:36:59;1.55;;;0.65;;
4873;SDS011;2451;49.970;9.068;2023-08-06T21:39:25;0.60;;;0.50;;
4873;SDS011;2451;49.970;9.068;2023-08-06T21:41:50;2.80;;;0.82;;
4873;SDS011;2451;49.970;9.068;2023-08-06T21:44:16;1.10;;;0.57;;
4873;SDS011;2451;49.970;9.068;2023-08-06T21:46:41;2.58;;;0.80;;
4873;SDS011;2451;49.970;9.068;2023-08-06T21:49:07;3.05;;;0.80;;
4873;SDS011;2451;49.970;9.068;2023-08-06T21:51:32;1.00;;;0.60;;
4873;SDS011;2451;49.970;9.068;2023-08-06T21:53:59;1.95;;;0.63;;
4873;SDS011;2451;49.970;9.068;2023-08-06T21:56:25;0.60;;;0.60;;
4873;SDS011;2451;49.970;9.068;2023-08-06T21:58:50;0.60;;;0.45;;
4873;SDS011;2451;49.970;9.068;2023-08-06T22:01:23;1.75;;;0.70;;
4873;SDS011;2451;49.970;9.068;2023-08-06T22:03:48;1.77;;;0.60;;
4873;SDS011;2451;49.970;9.068;2023-08-06T22:06:14;2.20;;;0.57;;
4873;SDS011;2451;49.970;9.068;2023-08-06T22:08:40;1.20;;;0.60;;
4873;SDS011;2451;49.970;9.068;2023-08-06T22:11:07;1.65;;;0.50;;
4873;SDS011;2451;49.970;9.068;2023-08-06T22:13:33;1.83;;;0.70;;
4873;SDS011;2451;49.970;9.068;2023-08-06T22:16:00;0.68;;;0.47;;
4873;SDS011;2451;49.970;9.068;2023-08-06T22:18:26;1.23;;;0.43;;
4873;SDS011;2451;49.970;9.068;2023-08-06T22:20:55;5.43;;;0.57;;
4873;SDS011;2451;49.970;9.068;2023-08-06T22:23:21;1.77;;;0.60;;
4873;SDS011;2451;49.970;9.068;2023-08-06T22:25:47;0.88;;;0.55;;
4873;SDS011;2451;49.970;9.068;2023-08-06T22:28:13;3.17;;;0.75;;
4873;SDS011;2451;49.970;9.068;2023-08-06T22:30:38;1.67;;;0.82;;
4873;SDS011;2451;49.970;9.068;2023-08-06T22:33:04;1.63;;;0.70;;
4873;SDS011;2451;49.970;9.068;2023-08-06T22:35:29;1.48;;;0.70;;
4873;SDS011;2451;49.970;9.068;2023-08-06T22:37:54;2.05;;;0.63;;
4873;SDS011;2451;49.970;9.068;2023-08-06T22:40:20;2.20;;;0.80;;
4873;SDS011;2451;49.970;9.068;2023-08-06T22:42:46;2.40;;;0.70;;
4873;SDS011;2451;49.970;9.068;2023-08-06T22:45:11;1.42;;;0.70;;
4873;SDS011;2451;49.970;9.068;2023-08-06T22:47:38;2.45;;;0.90;;
4873;SDS011;2451;49.970;9.068;2023-08-06T22:50:05;2.33;;;1.00;;
4873;SDS011;2451;49.970;9.068;2023-08-06T22:52:32;4.63;;;0.93;;
4873;SDS011;2451;49.970;9.068;2023-08-06T22:54:58;3.63;;;0.90;;
4873;SDS011;2451;49.970;9.068;2023-08-06T22:57:23;2.30;;;0.95;;
4873;SDS011;2451;49.970;9.068;2023-08-06T22:59:49;2.55;;;0.90;;
4873;SDS011;2451;49.970;9.068;2023-08-06T23:02:14;2.15;;;0.98;;
4873;SDS011;2451;49.970;9.068;2023-08-06T23:04:40;2.33;;;0.90;;
4873;SDS011;2451;49.970;9.068;2023-08-06T23:07:05;3.47;;;0.93;;
4873;SDS011;2451;49.970;9.068;2023-08-06T23:09:31;4.70;;;1.10;;
4873;SDS011;2451;49.970;9.068;2023-08-06T23:11:57;2.97;;;0.85;;
4873;SDS011;2451;49.970;9.068;2023-08-06T23:14:22;2.90;;;0.98;;
4873;SDS011;2451;49.970;9.068;2023-08-06T23:19:33;0.90;;;0.82;;
4873;SDS011;2451;49.970;9.068;2023-08-06T23:21:58;3.60;;;1.25;;
4873;SDS011;2451;49.970;9.068;2023-08-06T23:24:24;4.30;;;1.17;;
4873;SDS011;2451;49.970;9.068;2023-08-06T23:26:52;5.90;;;1.38;;
4873;SDS011;2451;49.970;9.068;2023-08-06T23:29:18;3.60;;;1.20;;
4873;SDS011;2451;49.970;9.068;2023-08-06T23:31:43;3.25;;;1.13;;
4873;SDS011;2451;49.970;9.068;2023-08-06T23:34:10;3.30;;;1.20;;
4873;SDS011;2451;49.970;9.068;2023-08-06T23:36:36;3.33;;;1.20;;
4873;SDS011;2451;49.970;9.068;2023-08-06T23:39:01;4.13;;;1.02;;
4873;SDS011;2451;49.970;9.068;2023-08-06T23:41:27;4.38;;;1.35;;
4873;SDS011;2451;49.970;9.068;2023-08-06T23:43:52;4.03;;;1.10;;
4873;SDS011;2451;49.970;9.068;2023-08-06T23:46:18;2.30;;;0.90;;
4873;SDS011;2451;49.970;9.068;2023-08-06T23:48:44;3.25;;;0.90;;
4873;SDS011;2451;49.970;9.068;2023-08-06T23:51:09;3.88;;;1.20;;
4873;SDS011;2451;49.970;9.068;2023-08-06T23:53:35;4.53;;;1.17;;
4873;SDS011;2451;49.970;9.068;2023-08-06T23:56:00;2.72;;;1.00;;
4873;SDS011;2451;49.970;9.068;2023-08-06T23:58:26;2.00;;;0.90;;
